Terminal Aerodrome Forecast
Issued by NWS Billings, MT

Current Version | Previous Version | Text Only | Print | Product List | Glossary On
Versions: 1 2 3 4 5 6 7 8 9 10 11 12 13 14 15 16 17 18 19 20 21 22 23 24 25 26
000
FTUS45 KBYZ 262336
TAFBIL
TAF
KBIL 262336Z 2700/2724 14008KT P6SM VCTS SCT100CB BKN150
     FM270400 23008KT P6SM VCSH SCT120 BKN150
     FM271600 31012KT P6SM VCTS SCT080CB BKN100=

USA.gov is the U.S. government's official web portal to all federal, state and local government web resources and services.